createdAt,value
2023-11-07T00:00:02.147Z,74.85
2023-11-07T00:02:30.430Z,74.25
2023-11-07T00:04:58.194Z,74.22
2023-11-07T00:07:25.938Z,74.37
2023-11-07T00:09:54.931Z,74.53
2023-11-07T00:12:22.693Z,74.36
2023-11-07T00:14:52.520Z,74.21
2023-11-07T00:17:22.250Z,74.42
2023-11-07T00:19:50.044Z,74.08
2023-11-07T00:22:17.836Z,73.83
2023-11-07T00:24:45.478Z,74.37
2023-11-07T00:27:13.205Z,74.43
2023-11-07T00:29:40.958Z,74.54
2023-11-07T00:32:08.541Z,74.57
2023-11-07T00:34:36.300Z,73.95
2023-11-07T00:37:04.941Z,74.13
2023-11-07T00:39:32.820Z,74.12
2023-11-07T00:42:00.418Z,74.02
2023-11-07T00:44:28.058Z,74.01
2023-11-07T00:46:55.790Z,73.81
2023-11-07T00:49:23.471Z,73.82
2023-11-07T00:51:51.131Z,74.13
2023-11-07T00:54:18.841Z,74.16
2023-11-07T00:56:46.734Z,73.97
2023-11-07T00:59:14.329Z,73.58
2023-11-07T01:01:42.118Z,74.07
2023-11-07T01:04:09.869Z,73.99
2023-11-07T01:06:37.835Z,73.92
2023-11-07T01:09:05.725Z,74.19
2023-11-07T01:11:33.438Z,74.44
2023-11-07T01:14:01.035Z,74.26
2023-11-07T01:16:28.951Z,74.70
2023-11-07T01:18:56.889Z,74.56
2023-11-07T01:21:25.105Z,74.53
2023-11-07T01:23:52.807Z,74.48
2023-11-07T01:26:20.401Z,74.34
2023-11-07T01:28:48.152Z,74.67
2023-11-07T01:31:15.714Z,74.76
2023-11-07T01:33:43.398Z,74.94
2023-11-07T01:36:11.815Z,74.42
2023-11-07T01:38:39.478Z,74.97
2023-11-07T01:41:07.213Z,74.96
2023-11-07T01:43:34.768Z,75.18
2023-11-07T01:46:04.267Z,74.82
2023-11-07T01:48:32.379Z,74.58
2023-11-07T01:51:00.475Z,74.56
2023-11-07T01:53:30.075Z,74.54
2023-11-07T01:55:58.939Z,74.99
2023-11-07T01:58:27.955Z,74.92
2023-11-07T02:00:56.750Z,74.94
2023-11-07T02:03:26.278Z,74.84
2023-11-07T02:05:54.099Z,74.88
2023-11-07T02:08:23.335Z,74.89
2023-11-07T02:10:51.147Z,74.64
2023-11-07T02:13:19.040Z,74.59
2023-11-07T02:15:46.738Z,75.18
2023-11-07T02:18:14.558Z,75.07
2023-11-07T02:20:43.305Z,75.06
2023-11-07T02:23:27.026Z,75.11
2023-11-07T02:25:54.686Z,75.35
2023-11-07T02:28:22.407Z,75.57
2023-11-07T02:30:50.205Z,75.17
2023-11-07T02:33:20.807Z,75.19
2023-11-07T02:35:48.673Z,75.10
2023-11-07T02:38:18.197Z,74.86
2023-11-07T02:40:45.810Z,74.75
2023-11-07T02:43:13.417Z,74.77
2023-11-07T02:45:41.122Z,74.71
2023-11-07T02:48:08.872Z,74.75
2023-11-07T02:50:36.680Z,74.79
2023-11-07T02:53:04.310Z,74.76
2023-11-07T02:55:31.937Z,74.96
2023-11-07T02:57:59.595Z,75.60
2023-11-07T03:00:28.102Z,76.20
2023-11-07T03:02:55.749Z,76.32
2023-11-07T03:05:23.505Z,75.86
2023-11-07T03:07:51.114Z,75.58
2023-11-07T03:10:18.730Z,75.18
2023-11-07T03:12:48.424Z,75.36
2023-11-07T03:15:20.190Z,75.91
2023-11-07T03:17:48.444Z,75.39
2023-11-07T03:20:18.013Z,75.20
2023-11-07T03:22:45.593Z,75.17
2023-11-07T03:25:13.381Z,75.16
2023-11-07T03:27:40.926Z,74.64
2023-11-07T03:30:09.724Z,74.46
2023-11-07T03:32:37.400Z,74.71
2023-11-07T03:35:06.007Z,74.54
2023-11-07T03:37:33.575Z,74.86
2023-11-07T03:40:01.354Z,74.58
2023-11-07T03:42:29.704Z,74.48
2023-11-07T03:44:57.294Z,74.67
2023-11-07T03:47:24.932Z,74.12
2023-11-07T03:49:53.300Z,74.34
2023-11-07T03:52:20.892Z,74.97
2023-11-07T03:54:49.310Z,74.59
2023-11-07T03:57:16.833Z,74.77
2023-11-07T03:59:47.615Z,74.74
2023-11-07T04:02:15.297Z,74.52
2023-11-07T04:04:42.858Z,74.62
2023-11-07T04:07:10.448Z,74.51
2023-11-07T04:09:38.831Z,74.41
2023-11-07T04:12:07.380Z,74.34
2023-11-07T04:14:34.984Z,74.58
2023-11-07T04:17:06.086Z,74.59
2023-11-07T04:19:34.982Z,74.35
2023-11-07T04:22:05.412Z,74.54
2023-11-07T04:24:33.013Z,74.87
2023-11-07T04:27:00.709Z,74.39
2023-11-07T04:29:28.319Z,74.85
2023-11-07T04:31:55.897Z,74.76
2023-11-07T04:34:23.659Z,74.78
2023-11-07T04:36:53.324Z,74.77
2023-11-07T04:39:20.886Z,74.91
2023-11-07T04:41:48.964Z,74.99
2023-11-07T04:44:16.637Z,74.44
2023-11-07T04:46:45.323Z,74.51
2023-11-07T04:49:15.496Z,74.75
2023-11-07T04:51:43.276Z,74.45
2023-11-07T04:54:11.030Z,74.33
2023-11-07T04:56:38.761Z,74.46
2023-11-07T04:59:06.356Z,74.36
2023-11-07T05:01:33.894Z,74.74
2023-11-07T05:04:01.665Z,74.21
2023-11-07T05:06:29.905Z,74.51
2023-11-07T05:08:57.673Z,74.46
2023-11-07T05:11:25.540Z,74.48
2023-11-07T05:13:53.172Z,73.99
2023-11-07T05:16:20.793Z,73.99
2023-11-07T05:18:49.332Z,74.40
2023-11-07T05:21:17.423Z,74.39
2023-11-07T05:23:44.979Z,74.17
2023-11-07T05:26:13.302Z,73.96
2023-11-07T05:28:40.894Z,74.11
2023-11-07T05:31:08.509Z,74.23
2023-11-07T05:33:37.559Z,73.97
2023-11-07T05:36:05.612Z,74.14
2023-11-07T05:38:33.190Z,74.44
2023-11-07T05:41:01.110Z,74.47
2023-11-07T05:43:29.045Z,74.39
2023-11-07T05:45:56.769Z,74.07
2023-11-07T05:48:27.665Z,74.26
2023-11-07T05:50:55.561Z,74.18
2023-11-07T05:53:23.227Z,74.30
2023-11-07T05:55:50.756Z,74.20
2023-11-07T05:58:18.428Z,74.08
2023-11-07T06:00:46.201Z,74.05
2023-11-07T06:03:16.815Z,74.11
2023-11-07T06:05:46.146Z,74.19
2023-11-07T06:08:14.465Z,74.26
2023-11-07T06:10:42.144Z,74.82
2023-11-07T06:13:09.753Z,75.02
2023-11-07T06:15:37.495Z,75.04
2023-11-07T06:18:05.295Z,75.61
2023-11-07T06:20:32.904Z,75.19
2023-11-07T06:23:00.428Z,74.90
2023-11-07T06:25:28.045Z,74.88
2023-11-07T06:27:55.760Z,74.92
2023-11-07T06:30:23.489Z,75.10
2023-11-07T06:32:51.368Z,75.06
2023-11-07T06:35:19.873Z,75.18
2023-11-07T06:37:48.101Z,75.11
2023-11-07T06:40:18.564Z,75.04
2023-11-07T06:42:47.800Z,74.76
2023-11-07T06:45:15.877Z,74.73
2023-11-07T06:47:45.205Z,74.53
2023-11-07T06:50:17.546Z,75.06
2023-11-07T06:52:52.663Z,75.09
2023-11-07T06:55:26.657Z,75.11
2023-11-07T06:57:57.028Z,75.08
2023-11-07T07:00:27.114Z,75.25
2023-11-07T07:02:58.045Z,75.22
2023-11-07T07:05:27.108Z,74.89
2023-11-07T07:07:56.214Z,74.61
2023-11-07T07:10:24.919Z,74.38
2023-11-07T07:12:52.574Z,74.00
2023-11-07T07:15:20.388Z,74.12
2023-11-07T07:17:48.581Z,74.65
2023-11-07T07:20:16.330Z,73.93
2023-11-07T07:22:45.857Z,74.40
2023-11-07T07:25:17.171Z,74.60
2023-11-07T07:27:48.560Z,74.63
2023-11-07T07:30:17.684Z,74.26
2023-11-07T07:32:46.840Z,74.07
2023-11-07T07:35:16.530Z,74.05
2023-11-07T07:37:46.493Z,74.32
2023-11-07T07:40:15.982Z,74.15
2023-11-07T07:42:45.412Z,74.33
2023-11-07T07:45:13.096Z,73.93
2023-11-07T07:47:40.782Z,73.97
2023-11-07T07:50:11.676Z,74.17
2023-11-07T07:52:40.010Z,74.45
2023-11-07T07:55:16.469Z,74.20
2023-11-07T07:57:51.638Z,74.34
2023-11-07T08:00:25.929Z,74.54
2023-11-07T08:02:53.654Z,74.41
2023-11-07T08:05:22.122Z,73.76
2023-11-07T08:07:50.245Z,73.47
2023-11-07T08:10:19.303Z,73.76
2023-11-07T08:12:48.461Z,73.52
2023-11-07T08:15:18.096Z,73.94
2023-11-07T08:17:46.085Z,73.57
2023-11-07T08:20:16.835Z,73.33
2023-11-07T08:22:45.255Z,73.02
2023-11-07T08:25:13.446Z,72.82
2023-11-07T08:27:45.831Z,72.75
2023-11-07T08:30:15.918Z,72.97
2023-11-07T08:32:45.173Z,73.15
2023-11-07T08:35:19.565Z,73.29
2023-11-07T08:37:48.717Z,72.78
2023-11-07T08:40:22.496Z,72.53
2023-11-07T08:42:52.226Z,72.51
2023-11-07T08:45:22.621Z,72.40
2023-11-07T08:47:52.507Z,72.38
2023-11-07T08:50:22.427Z,72.37
2023-11-07T08:52:53.988Z,72.16
2023-11-07T08:55:21.637Z,72.21
2023-11-07T08:57:51.013Z,72.43
2023-11-07T09:00:23.352Z,71.64
2023-11-07T09:02:52.783Z,71.80
2023-11-07T09:05:21.027Z,72.04
2023-11-07T09:07:49.055Z,72.15
2023-11-07T09:10:16.715Z,71.96
2023-11-07T09:12:44.416Z,71.76
2023-11-07T09:15:13.413Z,71.63
2023-11-07T09:17:43.053Z,71.76
2023-11-07T09:20:13.336Z,71.49
2023-11-07T09:22:42.532Z,71.54
2023-11-07T09:25:11.371Z,71.21
2023-11-07T09:27:39.671Z,71.63
2023-11-07T09:30:11.453Z,71.56
2023-11-07T09:32:41.333Z,71.29
2023-11-07T09:35:09.536Z,70.72
2023-11-07T09:37:41.232Z,70.64
2023-11-07T09:40:12.463Z,70.26
2023-11-07T09:42:44.291Z,70.83
2023-11-07T09:45:17.291Z,70.83
2023-11-07T09:47:49.014Z,70.80
2023-11-07T09:50:18.377Z,70.46
2023-11-07T09:52:47.537Z,70.37
2023-11-07T09:55:17.681Z,69.77
2023-11-07T09:58:01.876Z,69.88
2023-11-07T10:00:37.528Z,69.62
2023-11-07T10:03:07.647Z,70.02
2023-11-07T10:05:39.413Z,70.07
2023-11-07T10:08:07.931Z,69.92
2023-11-07T10:10:35.927Z,69.73
2023-11-07T10:13:13.707Z,69.59
2023-11-07T10:15:42.202Z,69.38
2023-11-07T10:18:12.765Z,69.29
2023-11-07T10:20:52.495Z,69.16
2023-11-07T10:23:20.393Z,68.87
2023-11-07T10:25:52.223Z,68.44
2023-11-07T10:28:23.083Z,67.80
2023-11-07T10:30:51.519Z,67.53
2023-11-07T10:33:27.030Z,67.40
2023-11-07T10:36:01.375Z,67.40
2023-11-07T10:38:30.763Z,66.66
2023-11-07T10:40:59.967Z,66.56
2023-11-07T10:43:41.531Z,65.71
2023-11-07T10:46:11.428Z,66.60
2023-11-07T10:48:43.022Z,66.92
2023-11-07T10:51:13.968Z,66.95
2023-11-07T10:53:44.279Z,67.05
2023-11-07T10:56:21.909Z,67.11
2023-11-07T10:59:00.198Z,67.12
2023-11-07T11:01:31.448Z,67.00
2023-11-07T11:04:02.198Z,66.83
2023-11-07T11:06:33.058Z,66.97
2023-11-07T11:09:12.877Z,66.87
2023-11-07T11:11:44.887Z,66.79
2023-11-07T11:14:15.726Z,66.74
2023-11-07T11:16:45.699Z,66.34
2023-11-07T11:19:50.960Z,65.69
2023-11-07T11:22:44.778Z,66.02
2023-11-07T11:25:28.552Z,65.88
2023-11-07T11:28:08.907Z,65.41
2023-11-07T11:30:40.528Z,66.17
2023-11-07T11:33:15.259Z,65.90
2023-11-07T11:35:46.022Z,66.18
2023-11-07T11:38:20.473Z,65.67
2023-11-07T11:41:04.251Z,65.45
2023-11-07T11:43:35.374Z,65.08
2023-11-07T11:46:12.988Z,64.91
2023-11-07T11:48:51.743Z,64.55
2023-11-07T11:51:41.869Z,64.27
2023-11-07T11:54:11.284Z,65.05
2023-11-07T11:56:51.731Z,64.97
2023-11-07T11:59:21.994Z,65.15
2023-11-07T12:02:02.421Z,64.63
2023-11-07T12:04:31.941Z,65.12
2023-11-07T12:07:09.152Z,64.63
2023-11-07T12:09:49.050Z,64.79
2023-11-07T12:12:18.664Z,65.52
2023-11-07T12:14:52.457Z,65.19
2023-11-07T12:17:23.039Z,64.61
2023-11-07T12:20:02.351Z,64.23
2023-11-07T12:22:31.009Z,64.12
2023-11-07T12:25:21.633Z,63.72
2023-11-07T12:28:05.345Z,64.19
2023-11-07T12:30:37.123Z,64.23
2023-11-07T12:33:11.134Z,64.40
2023-11-07T12:35:42.438Z,64.28
2023-11-07T12:38:11.408Z,63.98
2023-11-07T12:40:41.406Z,63.66
2023-11-07T12:43:10.409Z,63.36
2023-11-07T12:45:39.465Z,63.24
2023-11-07T12:48:11.697Z,63.34
2023-11-07T12:50:45.117Z,63.11
2023-11-07T12:53:14.149Z,62.83
2023-11-07T12:55:51.580Z,62.92
2023-11-07T12:58:29.653Z,63.08
2023-11-07T13:01:05.332Z,62.98
2023-11-07T13:03:34.410Z,62.89
2023-11-07T13:06:10.952Z,63.06
2023-11-07T13:08:43.437Z,63.09
2023-11-07T13:11:19.542Z,62.77
2023-11-07T13:13:51.134Z,63.02
2023-11-07T13:16:20.183Z,63.11
2023-11-07T13:18:54.188Z,63.02
2023-11-07T13:21:22.237Z,63.04
2023-11-07T13:23:50.122Z,62.80
2023-11-07T13:26:18.565Z,62.72
2023-11-07T13:28:46.575Z,62.92
2023-11-07T13:31:15.210Z,62.98
2023-11-07T13:33:47.317Z,63.20
2023-11-07T13:36:16.851Z,63.13
2023-11-07T13:38:48.697Z,63.33
2023-11-07T13:41:17.528Z,63.37
2023-11-07T13:43:45.288Z,63.82
2023-11-07T13:46:19.230Z,63.85
2023-11-07T13:48:52.033Z,63.64
2023-11-07T13:51:21.729Z,64.03
2023-11-07T13:53:52.533Z,64.15
2023-11-07T13:56:20.572Z,64.08
2023-11-07T13:58:48.952Z,64.75
2023-11-07T14:01:16.742Z,64.83
2023-11-07T14:03:44.473Z,64.47
2023-11-07T14:06:12.740Z,64.56
2023-11-07T14:08:40.430Z,64.53
2023-11-07T14:11:08.089Z,64.51
2023-11-07T14:13:35.756Z,64.29
2023-11-07T14:16:03.550Z,64.19
2023-11-07T14:18:33.686Z,64.24
2023-11-07T14:21:04.207Z,64.29
2023-11-07T14:23:32.124Z,64.62
2023-11-07T14:26:00.574Z,64.71
2023-11-07T14:28:28.560Z,64.81
2023-11-07T14:30:59.172Z,64.86
2023-11-07T14:33:29.421Z,64.95
2023-11-07T14:35:58.525Z,64.83
2023-11-07T14:38:35.569Z,65.14
2023-11-07T14:41:08.368Z,65.20
2023-11-07T14:43:36.891Z,65.15
2023-11-07T14:46:06.888Z,65.08
2023-11-07T14:48:35.771Z,65.11
2023-11-07T14:51:03.994Z,65.15
2023-11-07T14:53:31.736Z,65.40
2023-11-07T14:55:59.834Z,65.56
2023-11-07T14:58:28.108Z,65.70
2023-11-07T15:00:58.891Z,65.45
2023-11-07T15:03:26.696Z,65.62
2023-11-07T15:05:55.505Z,65.49
2023-11-07T15:08:23.694Z,65.65
2023-11-07T15:10:51.677Z,66.64
2023-11-07T15:13:19.553Z,66.99
2023-11-07T15:15:47.754Z,67.34
2023-11-07T15:18:15.570Z,67.28
2023-11-07T15:20:44.108Z,67.25
2023-11-07T15:23:12.421Z,67.25
2023-11-07T15:25:41.125Z,67.15
2023-11-07T15:28:09.672Z,67.28
2023-11-07T15:30:37.425Z,67.43
2023-11-07T15:33:05.627Z,67.51
2023-11-07T15:35:37.998Z,67.48
2023-11-07T15:38:08.362Z,67.98
2023-11-07T15:40:37.562Z,67.70
2023-11-07T15:43:10.107Z,68.24
2023-11-07T15:45:38.603Z,68.84
2023-11-07T15:48:09.807Z,68.79
2023-11-07T15:50:38.407Z,68.96
2023-11-07T15:53:08.962Z,69.38
2023-11-07T15:55:39.761Z,69.57
2023-11-07T15:58:08.742Z,70.11
2023-11-07T16:00:37.068Z,70.30
2023-11-07T16:03:06.138Z,70.53
2023-11-07T16:05:37.015Z,70.84
2023-11-07T16:08:08.346Z,71.02
2023-11-07T16:10:37.856Z,71.51
2023-11-07T16:13:06.110Z,71.82
2023-11-07T16:15:34.910Z,71.30
2023-11-07T16:18:03.506Z,71.36
2023-11-07T16:20:31.825Z,71.31
2023-11-07T16:23:00.072Z,71.68
2023-11-07T16:25:27.744Z,71.35
2023-11-07T16:27:57.540Z,71.99
2023-11-07T16:30:25.544Z,71.77
2023-11-07T16:32:53.429Z,71.01
2023-11-07T16:35:21.342Z,70.75
2023-11-07T16:37:49.761Z,70.57
2023-11-07T16:40:19.383Z,70.31
2023-11-07T16:42:48.444Z,70.61
2023-11-07T16:45:16.675Z,70.40
2023-11-07T16:47:45.049Z,70.54
2023-11-07T16:50:16.667Z,71.01
2023-11-07T16:52:44.334Z,71.18
2023-11-07T16:55:15.277Z,71.33
2023-11-07T16:57:46.238Z,71.22
2023-11-07T17:00:20.507Z,71.58
2023-11-07T17:02:49.251Z,71.39
2023-11-07T17:05:18.215Z,72.08
2023-11-07T17:07:46.857Z,72.04
2023-11-07T17:10:14.656Z,72.24
2023-11-07T17:12:42.301Z,71.87
2023-11-07T17:15:13.202Z,71.86
2023-11-07T17:17:41.712Z,71.84
2023-11-07T17:20:09.990Z,71.33
2023-11-07T17:22:39.998Z,71.34
2023-11-07T17:25:08.338Z,71.64
2023-11-07T17:27:36.620Z,71.35
2023-11-07T17:30:04.975Z,71.49
2023-11-07T17:32:32.861Z,71.97
2023-11-07T17:35:05.369Z,71.74
2023-11-07T17:37:33.946Z,71.63
2023-11-07T17:40:01.734Z,71.57
2023-11-07T17:42:30.295Z,71.47
2023-11-07T17:44:58.071Z,71.35
2023-11-07T17:47:27.091Z,71.73
2023-11-07T17:49:54.945Z,71.48
2023-11-07T17:52:22.550Z,71.43
2023-11-07T17:54:51.241Z,71.44
2023-11-07T17:57:21.857Z,71.14
2023-11-07T17:59:53.456Z,71.04
2023-11-07T18:02:22.694Z,71.31
2023-11-07T18:04:51.742Z,71.30
2023-11-07T18:07:22.604Z,71.36
2023-11-07T18:09:51.343Z,71.12
2023-11-07T18:12:22.054Z,71.25
2023-11-07T18:14:49.855Z,71.26
2023-11-07T18:17:17.487Z,71.30
2023-11-07T18:19:45.337Z,71.11
2023-11-07T18:22:13.399Z,71.50
2023-11-07T18:24:45.051Z,70.87
2023-11-07T18:27:13.179Z,70.82
2023-11-07T18:29:42.164Z,71.03
2023-11-07T18:32:11.646Z,70.92
2023-11-07T18:34:39.864Z,70.98
2023-11-07T18:37:09.055Z,71.55
2023-11-07T18:39:40.718Z,71.13
2023-11-07T18:42:09.712Z,71.35
2023-11-07T18:44:41.843Z,71.36
2023-11-07T18:47:09.836Z,71.14
2023-11-07T18:49:37.652Z,70.75
2023-11-07T18:52:05.928Z,70.93
2023-11-07T18:54:34.786Z,70.91
2023-11-07T18:57:02.817Z,70.88
2023-11-07T18:59:36.800Z,71.00
2023-11-07T19:02:08.446Z,70.54
2023-11-07T19:04:39.515Z,70.55
2023-11-07T19:07:09.099Z,71.12
2023-11-07T19:09:37.186Z,71.19
2023-11-07T19:12:06.093Z,70.47
2023-11-07T19:14:33.951Z,70.17
2023-11-07T19:17:04.482Z,70.24
2023-11-07T19:19:32.670Z,70.70
2023-11-07T19:22:02.241Z,71.33
2023-11-07T19:24:31.530Z,70.87
2023-11-07T19:27:00.234Z,70.50
2023-11-07T19:29:29.187Z,70.54
2023-11-07T19:31:56.831Z,70.19
2023-11-07T19:34:26.135Z,70.74
2023-11-07T19:36:57.242Z,70.42
2023-11-07T19:39:30.359Z,70.40
2023-11-07T19:42:03.246Z,69.98
2023-11-07T19:44:32.008Z,70.68
2023-11-07T19:47:00.439Z,70.81
2023-11-07T19:49:29.097Z,70.65
2023-11-07T19:51:59.394Z,70.43
2023-11-07T19:54:28.059Z,70.73
2023-11-07T19:56:58.622Z,70.49
2023-11-07T19:59:27.038Z,70.78
2023-11-07T20:01:54.603Z,70.66
2023-11-07T20:04:22.846Z,70.71
2023-11-07T20:06:51.601Z,70.73
2023-11-07T20:09:19.806Z,70.71
2023-11-07T20:11:50.322Z,70.81
2023-11-07T20:14:18.845Z,70.69
2023-11-07T20:16:47.097Z,70.61
2023-11-07T20:19:14.957Z,70.51
2023-11-07T20:21:42.791Z,70.49
2023-11-07T20:24:11.389Z,70.73
2023-11-07T20:26:39.187Z,70.30
2023-11-07T20:29:07.170Z,70.62
2023-11-07T20:31:35.107Z,70.82
2023-11-07T20:34:03.472Z,70.84
2023-11-07T20:36:31.566Z,70.76
2023-11-07T20:38:59.717Z,71.08
2023-11-07T20:41:27.906Z,70.80
2023-11-07T20:43:56.438Z,70.94
2023-11-07T20:46:33.527Z,70.87
2023-11-07T20:49:06.955Z,71.03
2023-11-07T20:51:36.668Z,71.38
2023-11-07T20:54:05.316Z,71.30
2023-11-07T20:56:34.338Z,71.20
2023-11-07T20:59:02.743Z,71.08
2023-11-07T21:01:30.818Z,71.16
2023-11-07T21:03:59.535Z,70.98
2023-11-07T21:06:27.611Z,71.39
2023-11-07T21:08:55.296Z,71.12
2023-11-07T21:11:23.339Z,70.66
2023-11-07T21:13:52.805Z,70.74
2023-11-07T21:16:20.990Z,70.97
2023-11-07T21:18:49.268Z,70.79
2023-11-07T21:21:17.591Z,71.19
2023-11-07T21:23:45.282Z,71.53
2023-11-07T21:26:15.279Z,71.31
2023-11-07T21:28:43.078Z,70.80
2023-11-07T21:31:10.804Z,70.67
2023-11-07T21:33:40.212Z,70.57
2023-11-07T21:36:08.954Z,71.16
2023-11-07T21:38:36.676Z,70.89
2023-11-07T21:41:05.330Z,70.72
2023-11-07T21:43:33.491Z,69.97
2023-11-07T21:46:02.017Z,70.71
2023-11-07T21:48:30.437Z,70.92
2023-11-07T21:50:58.242Z,70.74
2023-11-07T21:53:27.848Z,70.35
2023-11-07T21:55:57.373Z,70.83
2023-11-07T21:58:26.346Z,71.15
2023-11-07T22:00:54.220Z,70.56
2023-11-07T22:03:22.118Z,71.15
2023-11-07T22:05:49.994Z,71.06
2023-11-07T22:08:18.098Z,70.66
2023-11-07T22:10:45.724Z,70.84
2023-11-07T22:13:15.240Z,71.02
2023-11-07T22:15:42.897Z,70.66
2023-11-07T22:18:10.590Z,70.69
2023-11-07T22:20:39.454Z,71.21
2023-11-07T22:23:07.119Z,71.60
2023-11-07T22:25:34.794Z,71.51
2023-11-07T22:28:02.748Z,71.34
2023-11-07T22:30:30.719Z,71.51
2023-11-07T22:32:58.462Z,72.22
2023-11-07T22:35:30.217Z,72.76
2023-11-07T22:37:58.253Z,72.64
2023-11-07T22:40:26.159Z,73.12
2023-11-07T22:42:53.890Z,73.20
2023-11-07T22:45:21.655Z,72.72
2023-11-07T22:47:52.945Z,72.64
2023-11-07T22:50:20.628Z,72.46
2023-11-07T22:52:48.645Z,72.46
2023-11-07T22:55:17.810Z,72.30
2023-11-07T22:57:45.608Z,72.21
2023-11-07T23:00:17.448Z,72.16
2023-11-07T23:02:45.560Z,72.09
2023-11-07T23:05:13.596Z,72.45
2023-11-07T23:07:41.462Z,72.24
2023-11-07T23:10:09.355Z,72.20
2023-11-07T23:12:38.206Z,72.24
2023-11-07T23:15:06.837Z,72.11
2023-11-07T23:17:35.351Z,72.16
2023-11-07T23:20:03.711Z,71.85
2023-11-07T23:22:32.017Z,72.01
2023-11-07T23:24:59.782Z,72.47
2023-11-07T23:27:27.465Z,72.63
2023-11-07T23:29:57.498Z,73.02
2023-11-07T23:32:25.597Z,72.69
2023-11-07T23:34:53.785Z,72.62
2023-11-07T23:37:21.997Z,72.59
2023-11-07T23:39:49.928Z,72.51
2023-11-07T23:42:19.750Z,72.81
2023-11-07T23:44:47.357Z,73.14
2023-11-07T23:47:15.234Z,72.74
2023-11-07T23:49:42.907Z,72.77
2023-11-07T23:52:12.056Z,72.64
2023-11-07T23:54:39.856Z,72.39
2023-11-07T23:57:07.456Z,72.82
2023-11-07T23:59:35.096Z,72.73
